Time;durP1;ratioP1;P1;durP2;ratioP2;P2;SDS_P1;SDS_P2;PMS_P1;PMS_P2;Temp;Humidity;BMP_temperature;BMP_pressure;BME280_temperature;BME280_humidity;BME280_pressure;Samples;Min_cycle;Max_cycle;Signal;HPM_P1;HPM_P2
2021/12/30 00:00:43;;;;;;;9.30;5.60;;;;;;;4.91;100.00;94129.69;5085638;28;20213;-71
2021/12/30 00:03:13;;;;;;;9.50;6.10;;;;;;;5.01;100.00;94127.53;5086488;28;20201;-72
2021/12/30 00:05:42;;;;;;;11.53;7.50;;;;;;;4.94;100.00;94128.50;5086238;28;20562;-71
2021/12/30 00:08:12;;;;;;;12.07;7.03;;;;;;;4.91;100.00;94126.31;5087862;28;20684;-71
2021/12/30 00:10:41;;;;;;;9.97;6.37;;;;;;;4.80;100.00;94121.75;5087191;28;20196;-71
2021/12/30 00:13:10;;;;;;;10.03;6.60;;;;;;;4.78;100.00;94121.16;5089166;28;20204;-71
2021/12/30 00:15:38;;;;;;;9.03;5.57;;;;;;;4.63;100.00;94117.97;5096192;28;20639;-72
2021/12/30 00:18:09;;;;;;;12.97;5.30;;;;;;;4.63;100.00;94120.53;5095084;28;20295;-73
2021/12/30 00:20:37;;;;;;;6.80;4.70;;;;;;;4.57;100.00;94114.38;5089299;28;20213;-76
2021/12/30 00:23:09;;;;;;;6.10;4.40;;;;;;;4.56;100.00;94131.59;5092438;28;20261;-72
2021/12/30 00:25:40;;;;;;;5.60;4.27;;;;;;;4.64;100.00;94133.22;5085769;28;20378;-73
2021/12/30 00:28:10;;;;;;;5.80;4.23;;;;;;;4.58;100.00;94146.84;5085438;28;20229;-71
2021/12/30 00:30:39;;;;;;;6.53;4.97;;;;;;;4.64;100.00;94140.94;5085828;28;20197;-73
2021/12/30 00:33:08;;;;;;;7.37;5.07;;;;;;;4.55;100.00;94137.75;5092517;28;20659;-72
2021/12/30 00:35:40;;;;;;;7.43;4.80;;;;;;;4.63;100.00;94141.91;5090049;28;20671;-73
2021/12/30 00:38:08;;;;;;;6.70;4.77;;;;;;;4.67;100.00;94139.75;5084241;28;20207;-73
2021/12/30 00:40:37;;;;;;;8.10;5.17;;;;;;;4.58;100.00;94150.22;5088496;28;20754;-72
2021/12/30 00:43:07;;;;;;;6.53;4.73;;;;;;;4.49;100.00;94135.16;5088670;28;20310;-73
2021/12/30 00:45:37;;;;;;;10.20;5.90;;;;;;;4.59;100.00;94151.78;5093334;28;20726;-73
2021/12/30 00:48:06;;;;;;;9.23;5.23;;;;;;;4.62;100.00;94149.84;5089527;28;20209;-72
2021/12/30 00:50:35;;;;;;;7.47;4.80;;;;;;;4.66;100.00;94151.81;5088522;28;20744;-72
2021/12/30 00:53:05;;;;;;;5.87;4.53;;;;;;;4.70;100.00;94142.75;5089249;28;20201;-72
2021/12/30 00:55:35;;;;;;;8.23;5.23;;;;;;;4.76;100.00;94151.47;5094005;28;20199;-72
2021/12/30 00:58:14;;;;;;;8.70;4.80;;;;;;;4.82;100.00;94153.25;5093981;28;20232;-73
2021/12/30 01:00:46;;;;;;;5.70;4.40;;;;;;;4.85;100.00;94158.78;5089969;28;20248;-72
2021/12/30 01:03:17;;;;;;;5.90;4.20;;;;;;;4.85;100.00;94160.59;5088050;28;20670;-72
2021/12/30 01:05:46;;;;;;;7.30;4.60;;;;;;;4.70;100.00;94159.94;5088764;28;20206;-72
2021/12/30 01:08:16;;;;;;;7.63;4.30;;;;;;;4.62;100.00;94167.84;5090093;28;20601;-72
2021/12/30 01:10:46;;;;;;;5.97;4.20;;;;;;;4.61;100.00;94164.47;5087947;28;20675;-71
2021/12/30 01:13:23;;;;;;;6.57;4.57;;;;;;;4.51;100.00;94159.69;5094630;28;20647;-72
2021/12/30 01:15:59;;;;;;;6.43;4.47;;;;;;;4.53;100.00;94150.00;5086797;28;20200;-71
2021/12/30 01:18:39;;;;;;;6.73;4.03;;;;;;;4.54;100.00;94168.81;5088624;28;20279;-71
2021/12/30 01:21:11;;;;;;;6.53;4.00;;;;;;;4.54;100.00;94163.66;5097166;28;20255;-71
2021/12/30 01:23:42;;;;;;;5.53;3.97;;;;;;;4.55;100.00;94172.97;5090867;28;20579;-72
2021/12/30 01:26:12;;;;;;;5.87;4.23;;;;;;;4.51;100.00;94151.97;5087062;28;20247;-72
2021/12/30 01:28:43;;;;;;;5.93;4.30;;;;;;;4.68;100.00;94173.00;5091963;28;21028;-72
2021/12/30 01:31:13;;;;;;;5.70;3.87;;;;;;;4.58;100.00;94163.09;5088395;28;20200;-71
2021/12/30 01:33:43;;;;;;;5.73;4.27;;;;;;;4.58;100.00;94170.81;5090833;28;20249;-72
2021/12/30 01:36:11;;;;;;;5.23;4.20;;;;;;;4.53;100.00;94178.28;5092093;28;20251;-72
2021/12/30 01:38:42;;;;;;;5.93;4.30;;;;;;;4.56;100.00;94185.63;5088054;28;20630;-72
2021/12/30 01:41:13;;;;;;;5.53;4.40;;;;;;;4.53;100.00;94182.66;5088151;28;20211;-73
2021/12/30 01:43:45;;;;;;;6.43;4.63;;;;;;;4.70;100.00;94183.13;5087461;28;20276;-71
2021/12/30 01:46:13;;;;;;;7.23;5.00;;;;;;;4.76;100.00;94190.81;5086203;28;20559;-72
2021/12/30 01:48:43;;;;;;;5.67;4.33;;;;;;;4.75;100.00;94188.47;5091455;28;20205;-72
2021/12/30 01:51:11;;;;;;;7.10;4.80;;;;;;;4.60;100.00;94183.47;5092700;28;20201;-72
2021/12/30 01:53:41;;;;;;;7.07;4.87;;;;;;;4.56;100.00;94188.19;5092192;28;20207;-72
2021/12/30 01:56:10;;;;;;;6.97;4.60;;;;;;;4.65;100.00;94182.91;5092464;28;20720;-71
2021/12/30 01:58:38;;;;;;;10.30;5.40;;;;;;;4.69;100.00;94169.44;5088137;28;20660;-71
2021/12/30 02:01:10;;;;;;;7.57;5.23;;;;;;;4.85;100.00;94181.19;5096133;28;20859;-72
2021/12/30 02:03:39;;;;;;;6.03;4.20;;;;;;;4.83;100.00;94189.09;5086684;28;20207;-71
2021/12/30 02:06:07;;;;;;;6.73;4.77;;;;;;;4.82;100.00;94184.91;5091738;28;20259;-71
2021/12/30 02:08:35;;;;;;;6.27;4.13;;;;;;;4.85;100.00;94189.66;5092256;28;20208;-71
2021/12/30 02:11:02;;;;;;;5.47;4.27;;;;;;;4.89;100.00;94187.50;5092214;28;20196;-72
2021/12/30 02:13:31;;;;;;;9.13;4.00;;;;;;;4.91;100.00;94194.03;5091519;28;20573;-71
2021/12/30 02:16:02;;;;;;;5.43;4.10;;;;;;;4.96;100.00;94191.69;5092013;28;20208;-72
2021/12/30 02:18:33;;;;;;;8.40;4.53;;;;;;;4.98;100.00;94187.16;5095947;28;20208;-72
2021/12/30 02:21:08;;;;;;;7.23;4.73;;;;;;;5.03;100.00;94189.13;5096599;28;20217;-71
2021/12/30 02:23:39;;;;;;;5.73;4.10;;;;;;;5.00;100.00;94192.09;5098626;28;20848;-72
2021/12/30 02:26:09;;;;;;;8.17;5.50;;;;;;;5.00;100.00;94192.09;5091826;28;20213;-71
2021/12/30 02:28:39;;;;;;;7.10;5.00;;;;;;;5.05;100.00;94197.47;5091933;28;20255;-72
2021/12/30 02:31:11;;;;;;;7.27;4.87;;;;;;;5.01;100.00;94193.69;5090883;28;20222;-72
2021/12/30 02:33:41;;;;;;;6.13;4.10;;;;;;;5.00;100.00;94197.22;5092674;28;20197;-72
2021/12/30 02:36:11;;;;;;;6.27;4.40;;;;;;;4.99;100.00;94198.25;5091148;28;20242;-72
2021/12/30 02:38:44;;;;;;;7.53;4.80;;;;;;;4.94;100.00;94203.97;5091287;28;20200;-72
2021/12/30 02:41:15;;;;;;;6.70;4.40;;;;;;;4.73;100.00;94196.41;5087360;28;20220;-73
2021/12/30 02:43:44;;;;;;;7.93;4.93;;;;;;;4.67;100.00;94204.88;5085387;28;20211;-72
2021/12/30 02:46:13;;;;;;;9.13;5.53;;;;;;;4.64;100.00;94209.63;5092541;28;20208;-72
2021/12/30 02:48:42;;;;;;;10.13;6.63;;;;;;;4.75;100.00;94214.19;5094104;28;20207;-72
2021/12/30 02:51:13;;;;;;;8.90;5.73;;;;;;;4.65;100.00;94217.13;5090832;28;20657;-72
2021/12/30 02:53:41;;;;;;;8.57;5.23;;;;;;;4.61;100.00;94203.06;5089131;28;20725;-72
2021/12/30 02:56:11;;;;;;;7.00;4.90;;;;;;;4.70;100.00;94221.72;5091572;28;20215;-72
2021/12/30 02:58:40;;;;;;;7.00;5.00;;;;;;;4.73;100.00;94229.84;5088280;28;20666;-72
2021/12/30 03:01:13;;;;;;;5.27;4.33;;;;;;;4.74;100.00;94220.31;5092885;28;20221;-72
2021/12/30 03:03:43;;;;;;;7.87;5.63;;;;;;;4.71;100.00;94229.22;5091290;28;20642;-72
2021/12/30 03:06:16;;;;;;;13.30;5.73;;;;;;;4.86;100.00;94223.94;5089220;28;20228;-73
2021/12/30 03:08:46;;;;;;;9.60;7.40;;;;;;;4.94;100.00;94226.31;5091433;28;20585;-73
2021/12/30 03:11:16;;;;;;;10.60;7.40;;;;;;;4.95;100.00;94226.16;5091754;28;20205;-73
2021/12/30 03:13:45;;;;;;;9.23;5.23;;;;;;;4.86;100.00;94231.66;5093054;28;20205;-73
2021/12/30 03:16:20;;;;;;;8.87;5.40;;;;;;;4.67;100.00;94240.09;5094529;28;20719;-72
2021/12/30 03:18:49;;;;;;;9.03;5.53;;;;;;;4.71;100.00;94247.25;5090751;28;20560;-73
2021/12/30 03:21:23;;;;;;;7.10;5.20;;;;;;;4.68;100.00;94226.25;5095523;28;20303;-73
2021/12/30 03:23:53;;;;;;;7.83;5.63;;;;;;;4.79;100.00;94246.31;5095059;28;20208;-72
2021/12/30 03:26:21;;;;;;;9.43;5.20;;;;;;;4.79;100.00;94254.03;5091157;28;20204;-72
2021/12/30 03:28:52;;;;;;;8.73;5.30;;;;;;;4.86;100.00;94254.81;5083480;28;20240;-72
2021/12/30 03:31:22;;;;;;;7.97;5.20;;;;;;;4.88;100.00;94258.78;5090864;28;20212;-72
2021/12/30 03:33:51;;;;;;;6.90;5.13;;;;;;;4.80;100.00;94253.00;5091784;28;20678;-73
2021/12/30 03:36:25;;;;;;;8.67;5.47;;;;;;;4.84;100.00;94257.59;5092258;28;20631;-73
2021/12/30 03:38:57;;;;;;;8.47;5.33;;;;;;;4.96;100.00;94257.84;5090140;28;20637;-73
2021/12/30 03:41:28;;;;;;;7.60;5.33;;;;;;;5.07;100.00;94249.56;5093721;28;20752;-72
2021/12/30 03:44:02;;;;;;;9.27;5.73;;;;;;;5.16;100.00;94256.13;5103306;28;20240;-73
2021/12/30 03:46:32;;;;;;;7.40;5.30;;;;;;;5.04;100.00;94262.81;5089710;28;20198;-73
2021/12/30 03:49:01;;;;;;;9.27;6.10;;;;;;;5.02;100.00;94257.06;5090263;28;20197;-73
2021/12/30 03:51:37;;;;;;;20.97;12.90;;;;;;;5.14;100.00;94258.06;5091704;28;20205;-73
2021/12/30 03:54:07;;;;;;;20.27;13.57;;;;;;;5.16;100.00;94263.84;5089939;28;20769;-72
2021/12/30 03:56:36;;;;;;;13.83;9.97;;;;;;;5.12;100.00;94271.16;5093342;28;20211;-73
2021/12/30 03:59:09;;;;;;;13.00;8.97;;;;;;;4.95;100.00;94269.13;5090444;28;20247;-72
2021/12/30 04:01:37;;;;;;;10.77;6.77;;;;;;;5.06;100.00;94274.50;5084906;28;20993;-73
2021/12/30 04:04:06;;;;;;;10.67;6.47;;;;;;;5.00;100.00;94282.19;5091984;28;20202;-73
2021/12/30 04:06:35;;;;;;;8.03;5.67;;;;;;;5.09;100.00;94288.78;5089657;28;20212;-73
2021/12/30 04:09:07;;;;;;;10.97;6.53;;;;;;;5.20;100.00;94298.50;5084463;28;20210;-72
2021/12/30 04:11:38;;;;;;;10.87;6.40;;;;;;;5.24;100.00;94299.72;5089720;28;20200;-73
2021/12/30 04:14:06;;;;;;;12.63;8.93;;;;;;;5.11;100.00;94289.34;5088747;28;20212;-73
2021/12/30 04:16:39;;;;;;;12.87;7.60;;;;;;;5.12;100.00;94307.22;5089279;28;20656;-72
2021/12/30 04:19:09;;;;;;;10.10;6.70;;;;;;;5.08;100.00;94305.19;5089881;28;20212;-72
2021/12/30 04:21:40;;;;;;;9.47;6.40;;;;;;;5.12;100.00;94303.84;5092141;28;20714;-72
2021/12/30 04:24:10;;;;;;;8.83;5.97;;;;;;;5.10;100.00;94310.97;5093989;28;20206;-72
2021/12/30 04:26:39;;;;;;;8.57;5.47;;;;;;;5.04;100.00;94325.41;5089883;28;20216;-73
2021/12/30 04:29:09;;;;;;;7.77;5.57;;;;;;;5.07;100.00;94327.59;5090391;28;20264;-74
2021/12/30 04:31:39;;;;;;;8.03;5.73;;;;;;;5.17;100.00;94334.94;5089325;28;20313;-72
2021/12/30 04:34:07;;;;;;;7.60;5.40;;;;;;;5.09;100.00;94335.13;5090051;28;20201;-73
2021/12/30 04:36:35;;;;;;;9.67;5.43;;;;;;;5.03;100.00;94341.84;5089782;28;20200;-73
2021/12/30 04:39:05;;;;;;;10.40;6.17;;;;;;;5.09;100.00;94342.84;5090476;28;20201;-73
2021/12/30 04:41:33;;;;;;;7.10;5.30;;;;;;;5.11;100.00;94346.00;5089199;28;20235;-73
2021/12/30 04:44:02;;;;;;;6.73;5.03;;;;;;;5.08;100.00;94347.19;5089786;28;20200;-72
2021/12/30 04:46:33;;;;;;;7.77;5.20;;;;;;;5.02;100.00;94350.53;5087422;28;20215;-73
2021/12/30 04:49:01;;;;;;;7.27;5.33;;;;;;;5.13;100.00;94351.78;5088940;28;20203;-72
2021/12/30 04:51:30;;;;;;;6.67;5.47;;;;;;;5.02;100.00;94347.19;5089248;28;20622;-72
2021/12/30 04:53:58;;;;;;;8.40;5.70;;;;;;;4.96;100.00;94359.03;5089658;28;20289;-74
2021/12/30 04:56:31;;;;;;;8.43;5.40;;;;;;;4.98;100.00;94353.69;5092974;28;20201;-72
2021/12/30 04:58:59;;;;;;;9.03;5.77;;;;;;;4.93;100.00;94364.56;5089395;28;20647;-73
2021/12/30 05:01:29;;;;;;;7.63;5.43;;;;;;;4.87;100.00;94370.47;5088576;28;20224;-73
2021/12/30 05:03:58;;;;;;;9.53;6.13;;;;;;;4.79;100.00;94377.56;5088971;28;20257;-73
2021/12/30 05:06:29;;;;;;;10.30;6.33;;;;;;;4.86;100.00;94373.22;5089594;28;20213;-73
2021/12/30 05:08:58;;;;;;;10.00;5.23;;;;;;;4.77;100.00;94377.75;5088883;28;20718;-72
2021/12/30 05:11:29;;;;;;;8.67;5.10;;;;;;;4.83;100.00;94379.56;5089559;28;20200;-71
2021/12/30 05:13:57;;;;;;;6.17;4.87;;;;;;;4.78;100.00;94381.91;5083799;28;20287;-71
2021/12/30 05:16:25;;;;;;;6.63;4.80;;;;;;;4.73;100.00;94378.31;5087604;28;20197;-71
2021/12/30 05:18:56;;;;;;;7.57;5.20;;;;;;;4.58;100.00;94375.84;5088721;28;20602;-71
2021/12/30 05:21:25;;;;;;;7.40;5.60;;;;;;;4.48;100.00;94373.59;5088733;28;20693;-71
2021/12/30 05:23:54;;;;;;;9.97;6.00;;;;;;;4.46;100.00;94390.19;5086494;28;20300;-73
2021/12/30 05:26:27;;;;;;;9.70;6.60;;;;;;;4.40;100.00;94398.66;5093652;28;20633;-71
2021/12/30 05:28:58;;;;;;;9.97;6.70;;;;;;;4.45;100.00;94389.41;5087474;28;20236;-71
2021/12/30 05:31:28;;;;;;;11.30;6.47;;;;;;;4.60;100.00;94397.03;5092070;28;20201;-72
2021/12/30 05:33:56;;;;;;;10.47;7.10;;;;;;;4.57;100.00;94402.53;5093370;28;20192;-72
2021/12/30 05:36:25;;;;;;;11.67;7.73;;;;;;;4.74;100.00;94413.34;5098698;28;20674;-72
2021/12/30 05:38:55;;;;;;;14.53;8.10;;;;;;;4.83;100.00;94420.75;5092315;28;20584;-72
2021/12/30 05:41:26;;;;;;;13.70;8.67;;;;;;;4.94;100.00;94421.97;5091862;28;20246;-72
2021/12/30 05:43:54;;;;;;;14.63;8.37;;;;;;;5.03;100.00;94424.22;5092359;28;20212;-72
2021/12/30 05:46:27;;;;;;;11.27;7.87;;;;;;;5.10;100.00;94432.81;5092848;28;20683;-72
2021/12/30 05:48:57;;;;;;;11.73;7.83;;;;;;;5.24;100.00;94440.59;5089289;28;20715;-71
2021/12/30 05:51:26;;;;;;;14.77;9.20;;;;;;;5.27;100.00;94438.44;5092287;28;20690;-72
2021/12/30 05:53:54;;;;;;;10.87;7.23;;;;;;;5.38;100.00;94435.31;5095063;28;20200;-73
2021/12/30 05:56:22;;;;;;;17.40;10.63;;;;;;;5.48;100.00;94442.69;5092503;28;20201;-72
2021/12/30 05:58:53;;;;;;;23.97;15.77;;;;;;;5.43;100.00;94442.44;5090284;28;20215;-72
2021/12/30 06:01:26;;;;;;;23.23;15.50;;;;;;;5.34;100.00;94444.41;5091379;28;20248;-72
2021/12/30 06:03:56;;;;;;;23.30;14.43;;;;;;;5.34;100.00;94453.94;5092043;28;20965;-72
2021/12/30 06:06:25;;;;;;;24.07;14.97;;;;;;;5.36;100.00;94452.75;5092530;28;20698;-72
2021/12/30 06:08:55;;;;;;;21.50;13.67;;;;;;;5.40;100.00;94469.41;5098556;28;20688;-73
2021/12/30 06:11:23;;;;;;;23.83;13.83;;;;;;;5.49;100.00;94464.88;5093322;28;20273;-72
2021/12/30 06:13:51;;;;;;;14.47;9.40;;;;;;;5.57;100.00;94472.47;5092472;28;20203;-72
2021/12/30 06:16:19;;;;;;;16.63;9.50;;;;;;;5.37;100.00;94471.59;5091872;28;20291;-72
2021/12/30 06:18:49;;;;;;;16.37;10.23;;;;;;;5.17;100.00;94489.47;5091780;28;20223;-72
2021/12/30 06:21:18;;;;;;;10.50;7.27;;;;;;;5.03;100.00;94486.03;5089661;28;20247;-72
2021/12/30 06:23:47;;;;;;;11.93;5.43;;;;;;;4.98;100.00;94493.53;5091664;28;20209;-73
2021/12/30 06:26:15;;;;;;;6.17;4.37;;;;;;;5.10;100.00;94502.34;5088689;28;20578;-74
2021/12/30 06:28:44;;;;;;;4.30;2.80;;;;;;;5.12;100.00;94512.44;5091336;28;20227;-74
2021/12/30 06:31:12;;;;;;;4.57;2.80;;;;;;;5.23;100.00;94516.25;5088005;28;20205;-74
2021/12/30 06:33:41;;;;;;;5.00;3.77;;;;;;;5.37;100.00;94523.88;5095718;28;20209;-74
2021/12/30 06:36:14;;;;;;;4.03;3.13;;;;;;;5.42;100.00;94531.06;5091070;28;20241;-73
2021/12/30 06:38:43;;;;;;;4.13;2.90;;;;;;;5.53;100.00;94538.25;5091914;28;20203;-74
2021/12/30 06:41:11;;;;;;;4.00;2.90;;;;;;;5.58;100.00;94549.59;5091159;28;20342;-74
2021/12/30 06:43:42;;;;;;;3.70;2.70;;;;;;;5.62;100.00;94552.59;5090828;28;20208;-74
2021/12/30 06:46:11;;;;;;;4.47;2.50;;;;;;;5.63;100.00;94564.47;5092411;28;20198;-74
2021/12/30 06:48:44;;;;;;;3.53;2.33;;;;;;;5.72;100.00;94564.13;5090455;28;20350;-74
2021/12/30 06:51:17;;;;;;;2.60;2.10;;;;;;;5.74;100.00;94563.97;5092561;28;20260;-74
2021/12/30 06:53:45;;;;;;;4.57;2.60;;;;;;;5.70;100.00;94567.91;5090539;28;20586;-74
2021/12/30 06:56:15;;;;;;;3.73;2.27;;;;;;;5.70;100.00;94571.28;5094659;28;20274;-73
2021/12/30 06:58:44;;;;;;;4.37;2.20;;;;;;;5.68;100.00;94572.47;5090269;28;20206;-73
2021/12/30 07:01:14;;;;;;;2.03;1.87;;;;;;;5.73;100.00;94580.41;5090217;28;20226;-73
2021/12/30 07:03:45;;;;;;;3.57;2.37;;;;;;;5.69;100.00;94589.50;5092955;28;20196;-73
2021/12/30 07:06:16;;;;;;;3.13;2.30;;;;;;;5.68;100.00;94586.13;5092919;28;20223;-72
2021/12/30 07:08:46;;;;;;;3.57;2.50;;;;;;;5.69;100.00;94599.81;5089400;28;20755;-73
2021/12/30 07:11:14;;;;;;;3.57;2.40;;;;;;;5.69;100.00;94602.38;5090077;28;20274;-72
2021/12/30 07:13:42;;;;;;;2.43;2.10;;;;;;;5.76;100.00;94612.75;5091284;28;20198;-72
2021/12/30 07:16:11;;;;;;;2.90;2.20;;;;;;;5.78;100.00;94613.34;5090219;28;20195;-72
2021/12/30 07:18:39;;;;;;;3.97;2.60;;;;;;;5.77;100.00;94620.31;5090059;28;20907;-73
2021/12/30 07:21:07;;;;;;;2.77;2.27;;;;;;;5.79;100.00;94620.91;5091899;28;20220;-72
2021/12/30 07:23:38;;;;;;;2.63;2.43;;;;;;;5.84;100.00;94630.63;5095933;28;20197;-73
2021/12/30 07:26:09;;;;;;;3.63;2.90;;;;;;;5.86;100.00;94636.47;5090908;28;20294;-74
2021/12/30 07:28:37;;;;;;;4.07;3.00;;;;;;;5.79;100.00;94638.94;5089230;28;20244;-73
2021/12/30 07:31:08;;;;;;;5.90;3.13;;;;;;;5.76;100.00;94641.91;5090067;28;20193;-73
2021/12/30 07:33:38;;;;;;;4.83;3.47;;;;;;;5.70;100.00;94651.19;5090953;28;20861;-73
2021/12/30 07:36:07;;;;;;;4.33;3.00;;;;;;;5.74;100.00;94654.19;5089476;28;20195;-72
2021/12/30 07:38:37;;;;;;;3.63;2.90;;;;;;;5.73;100.00;94648.25;5091066;28;20233;-72
2021/12/30 07:41:06;;;;;;;4.20;2.70;;;;;;;5.73;100.00;94653.41;5090167;28;20218;-72
2021/12/30 07:43:35;;;;;;;5.43;3.50;;;;;;;5.72;100.00;94664.69;5089278;28;20215;-73
2021/12/30 07:46:06;;;;;;;5.97;3.23;;;;;;;5.80;100.00;94668.88;5088837;28;20678;-74
2021/12/30 07:48:33;;;;;;;4.63;2.77;;;;;;;5.76;100.00;94669.47;5089863;28;20211;-74
2021/12/30 07:51:01;;;;;;;5.20;3.40;;;;;;;5.71;100.00;94668.22;5090228;28;20204;-74
2021/12/30 07:53:28;;;;;;;5.73;3.47;;;;;;;5.49;100.00;94666.69;5089800;28;20209;-74
2021/12/30 07:56:01;;;;;;;4.90;3.20;;;;;;;5.15;100.00;94677.69;5095520;28;20207;-72
2021/12/30 07:58:29;;;;;;;4.77;3.10;;;;;;;5.01;100.00;94672.59;5091654;28;20274;-74
2021/12/30 08:00:58;;;;;;;4.93;2.97;;;;;;;5.08;100.00;94670.88;5097548;28;20201;-72
2021/12/30 08:03:26;;;;;;;5.17;3.30;;;;;;;5.16;100.00;94681.06;5089480;28;20197;-73
2021/12/30 08:05:55;;;;;;;6.67;4.10;;;;;;;5.29;100.00;94688.09;5091351;28;20289;-73
2021/12/30 08:08:53;;;;;;;8.67;5.07;;;;;;;5.39;100.00;94686.84;5089096;28;20201;-74
2021/12/30 08:11:25;;;;;;;7.90;4.87;;;;;;;5.45;100.00;94685.28;5086358;28;20197;-72
2021/12/30 08:13:59;;;;;;;7.73;4.70;;;;;;;5.51;100.00;94697.44;5087212;28;20186;-72
2021/12/30 08:16:27;;;;;;;8.87;4.60;;;;;;;5.57;100.00;94691.56;5087487;28;20207;-72
2021/12/30 08:18:55;;;;;;;6.00;3.83;;;;;;;5.61;100.00;94695.34;5085836;28;20201;-71
2021/12/30 08:21:24;;;;;;;4.50;3.10;;;;;;;5.63;100.00;94703.66;5087486;28;20224;-73
2021/12/30 08:23:52;;;;;;;5.53;3.30;;;;;;;5.51;100.00;94707.75;5088047;28;20559;-71
2021/12/30 08:26:21;;;;;;;4.43;3.20;;;;;;;5.43;100.00;94713.81;5089257;28;20201;-72
2021/12/30 08:28:53;;;;;;;6.77;3.77;;;;;;;5.50;100.00;94719.84;5087775;28;20234;-73
2021/12/30 08:31:22;;;;;;;8.67;4.10;;;;;;;5.56;100.00;94721.69;5087054;28;20213;-73
2021/12/30 08:33:52;;;;;;;7.03;4.20;;;;;;;5.63;100.00;94737.97;5088223;28;20206;-73
2021/12/30 08:36:21;;;;;;;9.03;5.67;;;;;;;5.70;100.00;94733.69;5088180;28;20227;-72
2021/12/30 08:38:50;;;;;;;7.37;4.03;;;;;;;5.70;100.00;94744.00;5088696;28;20222;-72
2021/12/30 08:41:20;;;;;;;6.53;3.17;;;;;;;5.74;100.00;94740.06;5086536;28;20202;-73
2021/12/30 08:43:50;;;;;;;6.27;3.00;;;;;;;5.76;100.00;94744.22;5087511;28;20230;-72
2021/12/30 08:46:18;;;;;;;3.70;2.70;;;;;;;5.84;100.00;94750.06;5085634;28;20620;-73
2021/12/30 08:48:47;;;;;;;4.63;3.10;;;;;;;5.84;100.00;94754.41;5088361;28;20204;-74
2021/12/30 08:51:17;;;;;;;5.27;3.50;;;;;;;5.79;100.00;94738.72;5087651;28;20205;-74
2021/12/30 08:53:47;;;;;;;5.87;3.47;;;;;;;5.89;100.00;94763.22;5090718;28;20206;-72
2021/12/30 08:56:14;;;;;;;6.17;3.53;;;;;;;5.87;100.00;94767.75;5088864;28;20576;-72
2021/12/30 08:58:42;;;;;;;5.20;3.40;;;;;;;5.92;100.00;94767.19;5092274;28;20684;-73
2021/12/30 09:01:11;;;;;;;6.53;3.63;;;;;;;5.89;100.00;94770.19;5091278;28;20194;-72
2021/12/30 09:03:39;;;;;;;5.40;3.70;;;;;;;5.85;100.00;94763.75;5092025;28;20263;-72
2021/12/30 09:06:07;;;;;;;5.93;3.90;;;;;;;5.88;100.00;94776.31;5092450;28;20194;-76
2021/12/30 09:08:35;;;;;;;7.60;4.10;;;;;;;5.85;100.00;94777.47;5092389;28;20670;-74
2021/12/30 09:11:06;;;;;;;9.23;4.33;;;;;;;5.91;100.00;94781.91;5092114;28;20198;-76
2021/12/30 09:13:34;;;;;;;5.03;3.60;;;;;;;5.96;100.00;94781.31;5093793;28;20197;-76
2021/12/30 09:16:03;;;;;;;6.73;3.70;;;;;;;5.92;100.00;94775.72;5091891;28;20735;-75
2021/12/30 09:18:34;;;;;;;5.87;3.70;;;;;;;5.99;100.00;94784.34;5091248;28;20260;-78
2021/12/30 09:21:03;;;;;;;5.70;3.33;;;;;;;6.04;100.00;94788.91;5091677;28;20195;-75
2021/12/30 09:23:32;;;;;;;4.93;3.43;;;;;;;6.09;100.00;94784.78;5092235;28;20218;-75
2021/12/30 09:26:01;;;;;;;6.00;4.10;;;;;;;6.05;100.00;94786.16;5094877;28;20195;-76
2021/12/30 09:28:28;;;;;;;7.17;4.37;;;;;;;6.07;100.00;94785.97;5091719;28;20312;-77
2021/12/30 09:30:57;;;;;;;9.53;5.20;;;;;;;5.98;100.00;94777.56;5091068;28;20201;-76
2021/12/30 09:33:25;;;;;;;7.50;4.40;;;;;;;6.03;100.00;94789.94;5091382;28;20207;-76
2021/12/30 09:35:55;;;;;;;8.27;4.57;;;;;;;6.04;100.00;94794.09;5092732;28;20235;-75
2021/12/30 09:38:23;;;;;;;6.97;4.47;;;;;;;6.03;100.00;94795.09;5092791;28;20244;-76
2021/12/30 09:40:51;;;;;;;7.47;4.23;;;;;;;6.04;100.00;94796.66;5091615;28;20279;-76
2021/12/30 09:43:20;;;;;;;7.73;4.27;;;;;;;6.09;100.00;94789.19;5091550;28;20616;-75
2021/12/30 09:45:50;;;;;;;6.53;4.57;;;;;;;6.20;99.48;94799.75;5091473;28;20210;-77
2021/12/30 09:48:18;;;;;;;8.17;4.17;;;;;;;6.14;99.53;94786.84;5090229;28;20203;-80
2021/12/30 09:50:48;;;;;;;6.47;4.27;;;;;;;6.21;100.00;94810.88;5095509;28;20256;-78
2021/12/30 09:53:20;;;;;;;7.67;4.43;;;;;;;6.20;100.00;94804.91;5095218;28;20198;-78
2021/12/30 09:55:49;;;;;;;9.63;4.57;;;;;;;6.24;100.00;94805.34;5094864;28;20226;-77
2021/12/30 09:58:17;;;;;;;8.10;4.73;;;;;;;6.25;99.05;94810.34;5093161;28;20563;-75
2021/12/30 10:00:45;;;;;;;6.37;4.37;;;;;;;6.23;99.72;94809.72;5091212;28;20208;-76
2021/12/30 10:03:15;;;;;;;7.33;4.23;;;;;;;6.22;99.20;94809.91;5091696;28;20275;-75
2021/12/30 10:05:43;;;;;;;8.33;4.37;;;;;;;6.16;98.85;94811.47;5092312;28;20200;-75
2021/12/30 10:08:18;;;;;;;6.57;4.17;;;;;;;6.16;99.28;94813.22;5090622;28;20203;-75
2021/12/30 10:10:51;;;;;;;6.33;4.13;;;;;;;6.08;99.59;94811.59;5091796;28;20288;-75
2021/12/30 10:13:31;;;;;;;8.33;3.90;;;;;;;6.08;99.33;94810.78;5089866;28;20203;-75
2021/12/30 10:16:02;;;;;;;6.37;3.70;;;;;;;6.10;99.37;94807.03;5089973;28;20672;-77
2021/12/30 10:18:44;;;;;;;7.10;3.93;;;;;;;6.08;100.00;94796.13;5092960;28;20228;-76
2021/12/30 10:21:18;;;;;;;7.57;3.70;;;;;;;6.19;100.00;94811.09;5088414;28;20194;-74
2021/12/30 10:23:55;;;;;;;7.77;4.20;;;;;;;6.15;100.00;94809.84;5092525;28;20233;-74
2021/12/30 10:26:23;;;;;;;7.10;3.80;;;;;;;6.20;97.49;94812.66;5091797;28;20205;-75
2021/12/30 10:28:52;;;;;;;7.00;4.33;;;;;;;6.22;98.10;94820.22;5089299;28;20298;-75
2021/12/30 10:31:24;;;;;;;8.27;4.40;;;;;;;6.22;99.22;94817.66;5091696;28;20202;-75
2021/12/30 10:33:55;;;;;;;9.07;4.77;;;;;;;6.11;98.85;94816.38;5093124;28;20197;-75
2021/12/30 10:36:26;;;;;;;8.40;4.20;;;;;;;6.11;99.95;94815.59;5093643;28;20250;-76
2021/12/30 10:39:14;;;;;;;6.43;3.30;;;;;;;6.12;99.10;94819.75;5093678;28;20193;-75
2021/12/30 10:41:43;;;;;;;4.90;3.60;;;;;;;5.95;98.79;94819.22;5094231;28;20212;-75
2021/12/30 10:44:20;;;;;;;6.23;2.87;;;;;;;5.92;99.58;94826.50;5086915;28;20201;-76
2021/12/30 10:49:57;;;;;;;5.73;3.23;;;;;;;6.12;97.76;94824.91;5087119;28;20207;-76
2021/12/30 10:52:28;;;;;;;4.40;3.23;;;;;;;6.05;98.53;94811.16;5088520;28;20281;-77
2021/12/30 10:55:01;;;;;;;4.80;3.10;;;;;;;6.15;99.36;94825.34;5095699;28;20218;-75
2021/12/30 10:57:31;;;;;;;4.67;3.03;;;;;;;6.21;98.46;94819.44;5090065;28;20198;-74
2021/12/30 11:00:01;;;;;;;4.40;3.07;;;;;;;6.23;98.19;94821.84;5090983;28;20203;-74
2021/12/30 11:02:35;;;;;;;5.77;3.40;;;;;;;6.29;97.76;94834.00;5091095;28;20211;-74
2021/12/30 11:05:10;;;;;;;6.70;3.77;;;;;;;6.34;96.71;94817.94;5091117;28;20203;-73
2021/12/30 11:07:46;;;;;;;7.07;3.67;;;;;;;6.51;96.07;94835.53;5090441;28;20801;-73
2021/12/30 11:10:18;;;;;;;6.33;3.10;;;;;;;6.47;95.21;94826.56;5091590;28;20199;-74
2021/12/30 11:12:48;;;;;;;5.50;3.07;;;;;;;6.38;95.43;94842.41;5090992;28;20203;-74
2021/12/30 11:15:23;;;;;;;4.80;2.90;;;;;;;6.30;96.25;94845.91;5091443;28;20215;-74
2021/12/30 11:17:52;;;;;;;7.53;3.50;;;;;;;6.38;96.27;94855.31;5085227;28;20597;-74
2021/12/30 11:20:23;;;;;;;4.73;2.80;;;;;;;6.37;95.76;94854.50;5091225;28;20254;-73
2021/12/30 11:22:51;;;;;;;5.83;2.80;;;;;;;6.40;96.11;94868.81;5085422;28;20320;-73
2021/12/30 11:25:20;;;;;;;4.53;3.00;;;;;;;6.48;95.28;94868.66;5086338;28;20709;-73
2021/12/30 11:27:48;;;;;;;4.00;2.80;;;;;;;6.50;95.34;94864.91;5089787;28;20209;-73
2021/12/30 11:30:19;;;;;;;4.63;2.80;;;;;;;6.56;95.47;94869.31;5089170;28;20668;-80
2021/12/30 11:32:49;;;;;;;5.03;3.30;;;;;;;6.59;94.46;94874.13;5088949;28;20272;-73
2021/12/30 11:35:19;;;;;;;4.93;3.20;;;;;;;6.58;94.58;94872.50;5090378;28;20215;-73
2021/12/30 11:37:48;;;;;;;6.17;3.27;;;;;;;6.58;94.24;94871.72;5090535;28;20583;-72
2021/12/30 11:40:21;;;;;;;5.90;3.30;;;;;;;6.62;92.76;94866.00;5090462;28;20548;-72
2021/12/30 11:42:52;;;;;;;3.47;2.80;;;;;;;6.61;93.67;94861.03;5093575;28;20730;-72
2021/12/30 11:45:29;;;;;;;9.47;2.90;;;;;;;6.56;93.90;94864.16;5091167;28;20198;-71
2021/12/30 11:47:58;;;;;;;3.27;2.50;;;;;;;6.54;93.83;94866.16;5091202;28;20199;-71
2021/12/30 11:50:33;;;;;;;3.00;2.17;;;;;;;6.60;93.52;94867.97;5097828;28;20211;-74